aviador You're here:

PASM Decoded Metar

SAINT MARYS in AK, USA
Report Time2017-07-24 20:26:00
UTC Time2017-07-24 20:47:40
Flight Rules lifr LIFR
Wind180° at 07 kt
W.Decomp.*RWY 17: 7.0 kt HW 0.2 kt LCW
RWY 24: 2.2 kt HW 6.7 kt LCW
W.Rank180° ranks 16
Current wind is below 180° avg. (8.7)
Visibility9999 m
Phenomena:N/A
Clouds:Overcast 004 Hf
Expected CloudBase > 400 ft AGL from Temp-Dew spread
Ceiling400 ft
Temp11°C (ISA -3)
Dew Point10°C (94% RH)
AAT8.5°C
QNH1016 hPa
Density Alt-39 ft
Elevation302 ft
Report Wrong Elevation
Raw Report
PASM 242026Z AUTO 18007KT 10SM OVC004 11/10 A2999 RMK AO2 CIG
002V007=

Extra information for PASM:More info

Metar Taf Metar & Taf Last 4 Metars F.Rules Stats Wind Profile Meteogram Temp Stats Airport Information Weather charts Add Link Nearby VenuesMetar ALERT Operation Metar Decoded Social comments

AIRNAV info for PASM